SWA2365 KBWI-KPWM
Flight info
| Callsign | SWA2365 |
|---|---|
| Flight time | 1h 18m |
| Altitude | 37000 |
| Route | DUKPN1 BROSS Q419 RBV Q22 LLUND BDR SCOGS3 |
| Aircraft | B738/M-SADE2E3GIJ4RWZ/LB1D1 |
Departure
| Time | 2026-04-25 17:37 |
|---|---|
| Airport | Baltimore/Washington International Thurgood Marshall Airport (KBWI) |
Arrival
| Time | 2026-04-25 18:56 |
|---|---|
| Airport | Portland International Jetport (KPWM) |
| Time | Latitude | Longitude | Altitude | Speed | Heading |
|---|---|---|---|---|---|
| 2026-04-25 17:09 | 39.17678 | -76.66882 | 153 ft | 0 kts | 245° |
| 2026-04-25 17:28 | 39.17682 | -76.66870 | 153 ft | 2 kts | 244° |
| 2026-04-25 17:29 | 39.17689 | -76.66852 | 153 ft | 2 kts | 233° |
| 2026-04-25 17:29 | 39.17701 | -76.66838 | 153 ft | 2 kts | 203° |
| 2026-04-25 17:29 | 39.17716 | -76.66834 | 154 ft | 2 kts | 172° |
| 2026-04-25 17:29 | 39.17728 | -76.66838 | 154 ft | 0 kts | 148° |
| 2026-04-25 17:32 | 39.17725 | -76.66836 | 154 ft | 2 kts | 148° |
| 2026-04-25 17:32 | 39.17713 | -76.66826 | 154 ft | 2 kts | 148° |
| 2026-04-25 17:32 | 39.17701 | -76.66815 | 154 ft | 2 kts | 143° |
| 2026-04-25 17:32 | 39.17666 | -76.66784 | 154 ft | 11 kts | 153° |
| 2026-04-25 17:33 | 39.17586 | -76.66780 | 154 ft | 12 kts | 184° |
| 2026-04-25 17:33 | 39.17516 | -76.66822 | 156 ft | 11 kts | 218° |
| 2026-04-25 17:33 | 39.17470 | -76.66894 | 156 ft | 0 kts | 250° |
| 2026-04-25 17:34 | 39.17469 | -76.66921 | 156 ft | 9 kts | 269° |
| 2026-04-25 17:34 | 39.17508 | -76.67062 | 159 ft | 24 kts | 311° |
| 2026-04-25 17:34 | 39.17663 | -76.67216 | 154 ft | 30 kts | 325° |
| 2026-04-25 17:34 | 39.17834 | -76.67376 | 152 ft | 30 kts | 324° |
| 2026-04-25 17:35 | 39.17983 | -76.67516 | 153 ft | 29 kts | 326° |
| 2026-04-25 17:35 | 39.18096 | -76.67619 | 154 ft | 17 kts | 324° |
| 2026-04-25 17:35 | 39.18188 | -76.67705 | 156 ft | 17 kts | 323° |
| 2026-04-25 17:35 | 39.18311 | -76.67816 | 154 ft | 28 kts | 324° |
| 2026-04-25 17:36 | 39.18482 | -76.67976 | 155 ft | 22 kts | 322° |
| 2026-04-25 17:36 | 39.18559 | -76.68076 | 154 ft | 18 kts | 286° |
| 2026-04-25 17:36 | 39.18484 | -76.68148 | 153 ft | 16 kts | 156° |
| 2026-04-25 17:36 | 39.18449 | -76.68118 | 154 ft | 10 kts | 144° |
| 2026-04-25 17:37 | 39.18184 | -76.67870 | 157 ft | 83 kts | 143° |
| 2026-04-25 17:37 | 39.17532 | -76.67258 | 160 ft | 145 kts | 144° |
| 2026-04-25 17:37 | 39.16620 | -76.66475 | 678 ft | 156 kts | 143° |
| 2026-04-25 17:37 | 39.15824 | -76.65580 | 1486 ft | 157 kts | 117° |
| 2026-04-25 17:38 | 39.15388 | -76.64194 | 1841 ft | 177 kts | 110° |
| 2026-04-25 17:38 | 39.15239 | -76.63701 | 1970 ft | 183 kts | 112° |
| 2026-04-25 17:38 | 39.14347 | -76.61072 | 2780 ft | 197 kts | 116° |
| 2026-04-25 17:38 | 39.13766 | -76.59403 | 3239 ft | 209 kts | 118° |
| 2026-04-25 17:39 | 39.13140 | -76.57615 | 3525 ft | 232 kts | 118° |
| 2026-04-25 17:39 | 39.12443 | -76.55635 | 3830 ft | 252 kts | 117° |
| 2026-04-25 17:39 | 39.11711 | -76.53551 | 4461 ft | 257 kts | 117° |
| 2026-04-25 17:39 | 39.10960 | -76.51422 | 5003 ft | 267 kts | 118° |
| 2026-04-25 17:40 | 39.10187 | -76.49231 | 5626 ft | 278 kts | 118° |
| 2026-04-25 17:40 | 39.09449 | -76.46856 | 6397 ft | 290 kts | 103° |
| 2026-04-25 17:40 | 39.09434 | -76.44280 | 7285 ft | 292 kts | 82° |
| 2026-04-25 17:40 | 39.09972 | -76.41730 | 8076 ft | 300 kts | 72° |
| 2026-04-25 17:41 | 39.10675 | -76.39172 | 8892 ft | 306 kts | 70° |
| 2026-04-25 17:41 | 39.11413 | -76.36571 | 9698 ft | 312 kts | 70° |
| 2026-04-25 17:41 | 39.12161 | -76.33906 | 10424 ft | 320 kts | 70° |
| 2026-04-25 17:41 | 39.12935 | -76.31096 | 10670 ft | 346 kts | 71° |
| 2026-04-25 17:42 | 39.13756 | -76.28071 | 10969 ft | 366 kts | 71° |
| 2026-04-25 17:42 | 39.14598 | -76.24940 | 11615 ft | 374 kts | 71° |
| 2026-04-25 17:42 | 39.15382 | -76.21743 | 12432 ft | 376 kts | 77° |
| 2026-04-25 17:42 | 39.15818 | -76.18401 | 13238 ft | 379 kts | 83° |
| 2026-04-25 17:43 | 39.16023 | -76.16157 | 13698 ft | 383 kts | 83° |
| 2026-04-25 17:43 | 39.16339 | -76.12742 | 13988 ft | 384 kts | 82° |
| 2026-04-25 17:43 | 39.16697 | -76.09313 | 14037 ft | 387 kts | 82° |
| 2026-04-25 17:43 | 39.17215 | -76.04716 | 14700 ft | 393 kts | 81° |
| 2026-04-25 17:44 | 39.17486 | -76.02355 | 15252 ft | 393 kts | 81° |
| 2026-04-25 17:44 | 39.17886 | -75.98863 | 15992 ft | 396 kts | 81° |
| 2026-04-25 17:44 | 39.18286 | -75.95338 | 16619 ft | 401 kts | 81° |
| 2026-04-25 17:44 | 39.18700 | -75.91747 | 17236 ft | 406 kts | 78° |
| 2026-04-25 17:45 | 39.19620 | -75.88356 | 17826 ft | 408 kts | 58° |
| 2026-04-25 17:45 | 39.20703 | -75.86331 | 18254 ft | 407 kts | 45° |
| 2026-04-25 17:45 | 39.23513 | -75.83053 | 19041 ft | 408 kts | 36° |
| 2026-04-25 17:45 | 39.25671 | -75.80754 | 19611 ft | 411 kts | 36° |
| 2026-04-25 17:46 | 39.27893 | -75.78395 | 20183 ft | 414 kts | 36° |
| 2026-04-25 17:46 | 39.30115 | -75.76011 | 20755 ft | 418 kts | 36° |
| 2026-04-25 17:46 | 39.32356 | -75.73578 | 21326 ft | 421 kts | 37° |
| 2026-04-25 17:46 | 39.34591 | -75.71132 | 21877 ft | 424 kts | 37° |
| 2026-04-25 17:47 | 39.36845 | -75.68651 | 22420 ft | 427 kts | 37° |
| 2026-04-25 17:47 | 39.39111 | -75.66154 | 22962 ft | 430 kts | 37° |
| 2026-04-25 17:47 | 39.41390 | -75.63642 | 23481 ft | 433 kts | 37° |
| 2026-04-25 17:47 | 39.43693 | -75.61103 | 23921 ft | 436 kts | 37° |
| 2026-04-25 17:48 | 39.48355 | -75.55979 | 24729 ft | 442 kts | 37° |
| 2026-04-25 17:48 | 39.50703 | -75.53399 | 25123 ft | 446 kts | 37° |
| 2026-04-25 17:48 | 39.53079 | -75.50786 | 25511 ft | 449 kts | 37° |
| 2026-04-25 17:49 | 39.55335 | -75.48300 | 25871 ft | 452 kts | 37° |
| 2026-04-25 17:49 | 39.57830 | -75.45548 | 26247 ft | 456 kts | 37° |
| 2026-04-25 17:49 | 39.60259 | -75.42867 | 26603 ft | 459 kts | 37° |
| 2026-04-25 17:49 | 39.62700 | -75.40169 | 26960 ft | 462 kts | 37° |
| 2026-04-25 17:50 | 39.65096 | -75.37523 | 27303 ft | 466 kts | 37° |
| 2026-04-25 17:50 | 39.67603 | -75.34753 | 27647 ft | 469 kts | 37° |
| 2026-04-25 17:50 | 39.70092 | -75.31999 | 28007 ft | 472 kts | 37° |
| 2026-04-25 17:50 | 39.72597 | -75.29223 | 28341 ft | 475 kts | 37° |
| 2026-04-25 17:51 | 39.75089 | -75.26459 | 28658 ft | 478 kts | 37° |
| 2026-04-25 17:51 | 39.77661 | -75.23605 | 28989 ft | 481 kts | 37° |
| 2026-04-25 17:51 | 39.80090 | -75.20692 | 29280 ft | 487 kts | 43° |
| 2026-04-25 17:51 | 39.82372 | -75.17374 | 29601 ft | 491 kts | 46° |
| 2026-04-25 17:52 | 39.84603 | -75.13976 | 29895 ft | 495 kts | 46° |
| 2026-04-25 17:52 | 39.86075 | -75.11714 | 30085 ft | 497 kts | 46° |
| 2026-04-25 17:52 | 39.89087 | -75.07120 | 30432 ft | 500 kts | 46° |
| 2026-04-25 17:52 | 39.91366 | -75.03689 | 30728 ft | 501 kts | 45° |
| 2026-04-25 17:53 | 39.93656 | -75.00260 | 31077 ft | 500 kts | 45° |
| 2026-04-25 17:53 | 39.95933 | -74.96852 | 31491 ft | 498 kts | 45° |
| 2026-04-25 17:53 | 39.98089 | -74.93317 | 31927 ft | 498 kts | 51° |
| 2026-04-25 17:53 | 40.00012 | -74.89646 | 32340 ft | 497 kts | 52° |
| 2026-04-25 17:54 | 40.01905 | -74.85857 | 32701 ft | 497 kts | 53° |
| 2026-04-25 17:54 | 40.03774 | -74.82072 | 33040 ft | 496 kts | 53° |
| 2026-04-25 17:54 | 40.05650 | -74.78293 | 33395 ft | 495 kts | 52° |
| 2026-04-25 17:54 | 40.07533 | -74.74537 | 33803 ft | 493 kts | 52° |
| 2026-04-25 17:55 | 40.09417 | -74.70810 | 34169 ft | 491 kts | 52° |
| 2026-04-25 17:55 | 40.11306 | -74.67087 | 34456 ft | 490 kts | 51° |
| 2026-04-25 17:55 | 40.13176 | -74.63404 | 34725 ft | 490 kts | 51° |
| 2026-04-25 17:55 | 40.15069 | -74.59669 | 34992 ft | 489 kts | 51° |
| 2026-04-25 17:56 | 40.16943 | -74.55963 | 35292 ft | 488 kts | 51° |
| 2026-04-25 17:56 | 40.18812 | -74.52283 | 35567 ft | 486 kts | 49° |
| 2026-04-25 17:56 | 40.20922 | -74.48835 | 35821 ft | 480 kts | 41° |
| 2026-04-25 17:56 | 40.22820 | -74.46475 | 36015 ft | 472 kts | 33° |
| 2026-04-25 17:57 | 40.25357 | -74.43786 | 36312 ft | 470 kts | 32° |
| 2026-04-25 17:57 | 40.27922 | -74.41125 | 36589 ft | 469 kts | 32° |
| 2026-04-25 17:57 | 40.30473 | -74.38476 | 36834 ft | 468 kts | 32° |
| 2026-04-25 17:57 | 40.32150 | -74.36720 | 37005 ft | 468 kts | 32° |
| 2026-04-25 17:58 | 40.35546 | -74.33129 | 37115 ft | 472 kts | 32° |
| 2026-04-25 17:58 | 40.40613 | -74.27708 | 37125 ft | 473 kts | 32° |
| 2026-04-25 17:59 | 40.45676 | -74.22258 | 37118 ft | 467 kts | 32° |
| 2026-04-25 17:59 | 40.50689 | -74.16862 | 37125 ft | 464 kts | 32° |
| 2026-04-25 18:00 | 40.55536 | -74.11640 | 37127 ft | 463 kts | 32° |
| 2026-04-25 18:00 | 40.60510 | -74.06277 | 37147 ft | 462 kts | 32° |
| 2026-04-25 18:01 | 40.65490 | -74.00902 | 37162 ft | 465 kts | 32° |
| 2026-04-25 18:01 | 40.70509 | -73.95472 | 37161 ft | 467 kts | 32° |
| 2026-04-25 18:02 | 40.75502 | -73.90054 | 37122 ft | 468 kts | 32° |
| 2026-04-25 18:02 | 40.80570 | -73.84544 | 37127 ft | 468 kts | 32° |
| 2026-04-25 18:03 | 40.85479 | -73.78989 | 37116 ft | 472 kts | 39° |
| 2026-04-25 18:03 | 40.89398 | -73.71944 | 37140 ft | 482 kts | 53° |
| 2026-04-25 18:04 | 40.92790 | -73.64279 | 37130 ft | 480 kts | 54° |
| 2026-04-25 18:04 | 40.96154 | -73.56683 | 37122 ft | 477 kts | 53° |
| 2026-04-25 18:05 | 40.99542 | -73.49165 | 37131 ft | 474 kts | 53° |
| 2026-04-25 18:05 | 41.02899 | -73.41751 | 37133 ft | 473 kts | 53° |
| 2026-04-25 18:06 | 41.06277 | -73.34271 | 37149 ft | 471 kts | 53° |
| 2026-04-25 18:06 | 41.09632 | -73.26814 | 37149 ft | 470 kts | 53° |
| 2026-04-25 18:07 | 41.12956 | -73.19409 | 37153 ft | 470 kts | 53° |
| 2026-04-25 18:07 | 41.16301 | -73.11942 | 37153 ft | 470 kts | 52° |
| 2026-04-25 18:08 | 41.19733 | -73.04560 | 37155 ft | 470 kts | 51° |
| 2026-04-25 18:08 | 41.23214 | -72.97222 | 37146 ft | 470 kts | 51° |
| 2026-04-25 18:09 | 41.26700 | -72.89834 | 37160 ft | 471 kts | 51° |
| 2026-04-25 18:09 | 41.30174 | -72.82418 | 37142 ft | 473 kts | 51° |
| 2026-04-25 18:10 | 41.33644 | -72.74979 | 37139 ft | 473 kts | 51° |
| 2026-04-25 18:10 | 41.37082 | -72.67585 | 37129 ft | 472 kts | 51° |
| 2026-04-25 18:11 | 41.40544 | -72.60124 | 37127 ft | 471 kts | 51° |
| 2026-04-25 18:11 | 41.43973 | -72.52719 | 37128 ft | 470 kts | 51° |
| 2026-04-25 18:12 | 41.47389 | -72.45323 | 37127 ft | 468 kts | 51° |
| 2026-04-25 18:12 | 41.50804 | -72.37913 | 37134 ft | 466 kts | 51° |
| 2026-04-25 18:13 | 41.54173 | -72.30585 | 37134 ft | 465 kts | 51° |
| 2026-04-25 18:13 | 41.57550 | -72.23222 | 37124 ft | 464 kts | 51° |
| 2026-04-25 18:14 | 41.62596 | -72.12188 | 37124 ft | 464 kts | 51° |
| 2026-04-25 18:14 | 41.65952 | -72.04826 | 37129 ft | 464 kts | 52° |
| 2026-04-25 18:15 | 41.69304 | -71.97453 | 37122 ft | 464 kts | 52° |
| 2026-04-25 18:15 | 41.72656 | -71.90063 | 37123 ft | 465 kts | 52° |
| 2026-04-25 18:16 | 41.76014 | -71.82642 | 37141 ft | 465 kts | 52° |
| 2026-04-25 18:17 | 41.81018 | -71.71547 | 37124 ft | 466 kts | 52° |
| 2026-04-25 18:17 | 41.84365 | -71.64080 | 37119 ft | 468 kts | 54° |
| 2026-04-25 18:18 | 41.87342 | -71.56230 | 37121 ft | 474 kts | 58° |
| 2026-04-25 18:18 | 41.90139 | -71.48221 | 37112 ft | 475 kts | 58° |
| 2026-04-25 18:18 | 41.91555 | -71.44187 | 36688 ft | 480 kts | 58° |
| 2026-04-25 18:19 | 41.92994 | -71.40125 | 36171 ft | 478 kts | 57° |
| 2026-04-25 18:19 | 41.94427 | -71.36102 | 35542 ft | 478 kts | 57° |
| 2026-04-25 18:19 | 41.95853 | -71.32115 | 34923 ft | 479 kts | 57° |
| 2026-04-25 18:19 | 41.97300 | -71.28070 | 34395 ft | 478 kts | 56° |
| 2026-04-25 18:20 | 41.98729 | -71.24064 | 33892 ft | 475 kts | 56° |
| 2026-04-25 18:20 | 42.00002 | -71.20493 | 33437 ft | 472 kts | 56° |
| 2026-04-25 18:20 | 42.01446 | -71.16433 | 32960 ft | 468 kts | 56° |
| 2026-04-25 18:20 | 42.02847 | -71.12489 | 32488 ft | 465 kts | 56° |
| 2026-04-25 18:21 | 42.04234 | -71.08583 | 32039 ft | 461 kts | 56° |
| 2026-04-25 18:21 | 42.05595 | -71.04745 | 31602 ft | 458 kts | 56° |
| 2026-04-25 18:21 | 42.06961 | -71.00886 | 31162 ft | 455 kts | 56° |
| 2026-04-25 18:21 | 42.08409 | -70.97138 | 30705 ft | 443 kts | 46° |
| 2026-04-25 18:22 | 42.10380 | -70.94099 | 30301 ft | 421 kts | 31° |
| 2026-04-25 18:22 | 42.11139 | -70.93252 | 30153 ft | 415 kts | 27° |
| 2026-04-25 18:22 | 42.15231 | -70.90409 | 29320 ft | 387 kts | 9° |
| 2026-04-25 18:22 | 42.17776 | -70.89269 | 28865 ft | 383 kts | 9° |
| 2026-04-25 18:23 | 42.20273 | -70.88149 | 28422 ft | 380 kts | 9° |
| 2026-04-25 18:23 | 42.22774 | -70.87013 | 27988 ft | 377 kts | 9° |
| 2026-04-25 18:23 | 42.25253 | -70.85873 | 27558 ft | 374 kts | 9° |
| 2026-04-25 18:23 | 42.27707 | -70.84735 | 27126 ft | 371 kts | 9° |
| 2026-04-25 18:24 | 42.30146 | -70.83598 | 26690 ft | 369 kts | 9° |
| 2026-04-25 18:24 | 42.32565 | -70.82468 | 26266 ft | 366 kts | 9° |
| 2026-04-25 18:24 | 42.34972 | -70.81341 | 25845 ft | 364 kts | 9° |
| 2026-04-25 18:24 | 42.37332 | -70.80237 | 25431 ft | 362 kts | 9° |
| 2026-04-25 18:25 | 42.39707 | -70.79124 | 25010 ft | 361 kts | 9° |
| 2026-04-25 18:25 | 42.42075 | -70.78013 | 24598 ft | 359 kts | 9° |
| 2026-04-25 18:25 | 42.44421 | -70.76896 | 24158 ft | 359 kts | 11° |
| 2026-04-25 18:25 | 42.46760 | -70.75655 | 23709 ft | 361 kts | 12° |
| 2026-04-25 18:26 | 42.49080 | -70.74360 | 23249 ft | 360 kts | 13° |
| 2026-04-25 18:26 | 42.51378 | -70.73067 | 22818 ft | 357 kts | 13° |
| 2026-04-25 18:26 | 42.53658 | -70.71790 | 22440 ft | 353 kts | 13° |
| 2026-04-25 18:26 | 42.55926 | -70.70530 | 22059 ft | 349 kts | 13° |
| 2026-04-25 18:27 | 42.58163 | -70.69294 | 21667 ft | 346 kts | 13° |
| 2026-04-25 18:27 | 42.60375 | -70.68076 | 21320 ft | 342 kts | 14° |
| 2026-04-25 18:27 | 42.62581 | -70.66862 | 20932 ft | 341 kts | 14° |
| 2026-04-25 18:27 | 42.64774 | -70.65654 | 20554 ft | 338 kts | 14° |
| 2026-04-25 18:28 | 42.66946 | -70.64456 | 20188 ft | 336 kts | 15° |
| 2026-04-25 18:28 | 42.69087 | -70.63232 | 19858 ft | 335 kts | 17° |
| 2026-04-25 18:28 | 42.71189 | -70.61927 | 19480 ft | 334 kts | 18° |
| 2026-04-25 18:29 | 42.75368 | -70.59260 | 18770 ft | 330 kts | 19° |
| 2026-04-25 18:29 | 42.77442 | -70.57940 | 18404 ft | 328 kts | 20° |
| 2026-04-25 18:30 | 42.83606 | -70.54040 | 17159 ft | 325 kts | 20° |
| 2026-04-25 18:30 | 42.85657 | -70.52745 | 16782 ft | 323 kts | 20° |
| 2026-04-25 18:30 | 42.87688 | -70.51462 | 16413 ft | 320 kts | 20° |
| 2026-04-25 18:30 | 42.89703 | -70.50189 | 16047 ft | 318 kts | 21° |
| 2026-04-25 18:31 | 42.91708 | -70.48922 | 15695 ft | 316 kts | 21° |
| 2026-04-25 18:31 | 42.93699 | -70.47663 | 15338 ft | 315 kts | 21° |
| 2026-04-25 18:31 | 42.95013 | -70.46831 | 15104 ft | 314 kts | 21° |
| 2026-04-25 18:31 | 42.96989 | -70.45580 | 14751 ft | 312 kts | 21° |
| 2026-04-25 18:32 | 42.98963 | -70.44330 | 14399 ft | 311 kts | 21° |
| 2026-04-25 18:32 | 43.00922 | -70.43087 | 14045 ft | 310 kts | 22° |
| 2026-04-25 18:32 | 43.02849 | -70.41788 | 13686 ft | 310 kts | 27° |
| 2026-04-25 18:32 | 43.04686 | -70.40249 | 13332 ft | 308 kts | 30° |
| 2026-04-25 18:33 | 43.06477 | -70.38649 | 12962 ft | 307 kts | 31° |
| 2026-04-25 18:33 | 43.08268 | -70.37045 | 12590 ft | 306 kts | 30° |
| 2026-04-25 18:33 | 43.10051 | -70.35467 | 12230 ft | 305 kts | 30° |
| 2026-04-25 18:33 | 43.11836 | -70.33905 | 11868 ft | 303 kts | 30° |
| 2026-04-25 18:34 | 43.13614 | -70.32358 | 11515 ft | 302 kts | 30° |
| 2026-04-25 18:34 | 43.15386 | -70.30818 | 11164 ft | 301 kts | 30° |
| 2026-04-25 18:34 | 43.17120 | -70.29307 | 10855 ft | 300 kts | 31° |
| 2026-04-25 18:34 | 43.18889 | -70.27754 | 10573 ft | 303 kts | 31° |
| 2026-04-25 18:35 | 43.20650 | -70.26205 | 10276 ft | 300 kts | 31° |
| 2026-04-25 18:35 | 43.22408 | -70.24658 | 9974 ft | 297 kts | 31° |
| 2026-04-25 18:35 | 43.24139 | -70.23135 | 9664 ft | 294 kts | 31° |
| 2026-04-25 18:35 | 43.25849 | -70.21637 | 9367 ft | 290 kts | 31° |
| 2026-04-25 18:36 | 43.27551 | -70.20171 | 9081 ft | 287 kts | 31° |
| 2026-04-25 18:36 | 43.29233 | -70.18723 | 8801 ft | 283 kts | 31° |
| 2026-04-25 18:36 | 43.30873 | -70.17310 | 8527 ft | 280 kts | 31° |
| 2026-04-25 18:36 | 43.32539 | -70.15885 | 8261 ft | 276 kts | 30° |
| 2026-04-25 18:37 | 43.34190 | -70.14562 | 7995 ft | 273 kts | 28° |
| 2026-04-25 18:37 | 43.35814 | -70.13291 | 7732 ft | 270 kts | 28° |
| 2026-04-25 18:37 | 43.37446 | -70.12015 | 7473 ft | 268 kts | 28° |
| 2026-04-25 18:37 | 43.39056 | -70.10753 | 7221 ft | 266 kts | 28° |
| 2026-04-25 18:38 | 43.40656 | -70.09493 | 6963 ft | 264 kts | 29° |
| 2026-04-25 18:38 | 43.42245 | -70.08240 | 6702 ft | 263 kts | 29° |
| 2026-04-25 18:38 | 43.43825 | -70.06991 | 6453 ft | 261 kts | 29° |
| 2026-04-25 18:38 | 43.45400 | -70.05745 | 6181 ft | 260 kts | 29° |
| 2026-04-25 18:39 | 43.46967 | -70.04503 | 5920 ft | 259 kts | 29° |
| 2026-04-25 18:39 | 43.48532 | -70.03262 | 5650 ft | 258 kts | 29° |
| 2026-04-25 18:39 | 43.50088 | -70.02028 | 5420 ft | 257 kts | 30° |
| 2026-04-25 18:39 | 43.51637 | -70.00797 | 5164 ft | 256 kts | 30° |
| 2026-04-25 18:40 | 43.53177 | -69.99574 | 4913 ft | 255 kts | 30° |
| 2026-04-25 18:40 | 43.54783 | -69.98601 | 4643 ft | 252 kts | 10° |
| 2026-04-25 18:40 | 43.56509 | -69.98729 | 4412 ft | 249 kts | 344° |
| 2026-04-25 18:40 | 43.58044 | -69.99809 | 4169 ft | 248 kts | 325° |
| 2026-04-25 18:41 | 43.59357 | -70.01256 | 3944 ft | 245 kts | 321° |
| 2026-04-25 18:41 | 43.60657 | -70.02775 | 3684 ft | 240 kts | 321° |
| 2026-04-25 18:41 | 43.61912 | -70.04242 | 3445 ft | 232 kts | 318° |
| 2026-04-25 18:41 | 43.62797 | -70.06039 | 3240 ft | 224 kts | 292° |
| 2026-04-25 18:42 | 43.63187 | -70.08085 | 3024 ft | 217 kts | 282° |
| 2026-04-25 18:42 | 43.63370 | -70.09430 | 2875 ft | 213 kts | 282° |
| 2026-04-25 18:42 | 43.63727 | -70.12088 | 2603 ft | 208 kts | 282° |
| 2026-04-25 18:42 | 43.63997 | -70.14039 | 2413 ft | 208 kts | 282° |
| 2026-04-25 18:43 | 43.64275 | -70.16018 | 2143 ft | 212 kts | 282° |
| 2026-04-25 18:43 | 43.64556 | -70.18010 | 1817 ft | 211 kts | 283° |
| 2026-04-25 18:43 | 43.65039 | -70.19914 | 1508 ft | 208 kts | 305° |
| 2026-04-25 18:43 | 43.65996 | -70.21349 | 1328 ft | 198 kts | 307° |
| 2026-04-25 18:44 | 43.66333 | -70.23028 | 1135 ft | 180 kts | 255° |
| 2026-04-25 18:44 | 43.65620 | -70.24305 | 928 ft | 166 kts | 203° |
| 2026-04-25 18:44 | 43.64540 | -70.24660 | 809 ft | 161 kts | 197° |
| 2026-04-25 18:44 | 43.63797 | -70.25645 | 751 ft | 148 kts | 253° |
| 2026-04-25 18:45 | 43.64021 | -70.27031 | 529 ft | 155 kts | 309° |
| 2026-04-25 18:45 | 43.64818 | -70.28043 | 649 ft | 153 kts | 306° |
| 2026-04-25 18:45 | 43.65004 | -70.29516 | 879 ft | 186 kts | 242° |
| 2026-04-25 18:45 | 43.64255 | -70.31009 | 1595 ft | 194 kts | 246° |
| 2026-04-25 18:46 | 43.64162 | -70.32859 | 2306 ft | 204 kts | 281° |
| 2026-04-25 18:46 | 43.64446 | -70.34851 | 2826 ft | 214 kts | 281° |
| 2026-04-25 18:46 | 43.64706 | -70.36905 | 2956 ft | 220 kts | 288° |
| 2026-04-25 18:46 | 43.65525 | -70.38645 | 3030 ft | 222 kts | 317° |
| 2026-04-25 18:47 | 43.66714 | -70.40011 | 2936 ft | 225 kts | 321° |
| 2026-04-25 18:47 | 43.67897 | -70.41343 | 3015 ft | 215 kts | 321° |
| 2026-04-25 18:47 | 43.69069 | -70.42656 | 2992 ft | 212 kts | 321° |
| 2026-04-25 18:47 | 43.70208 | -70.43930 | 3005 ft | 215 kts | 321° |
| 2026-04-25 18:48 | 43.71381 | -70.45235 | 3019 ft | 219 kts | 321° |
| 2026-04-25 18:48 | 43.72574 | -70.46565 | 3017 ft | 219 kts | 321° |
| 2026-04-25 18:48 | 43.73756 | -70.47884 | 3005 ft | 220 kts | 319° |
| 2026-04-25 18:48 | 43.74625 | -70.49600 | 3004 ft | 218 kts | 286° |
| 2026-04-25 18:49 | 43.74874 | -70.51661 | 2995 ft | 218 kts | 276° |
| 2026-04-25 18:49 | 43.75025 | -70.53744 | 3001 ft | 217 kts | 276° |
| 2026-04-25 18:49 | 43.75164 | -70.55794 | 3000 ft | 218 kts | 275° |
| 2026-04-25 18:49 | 43.75304 | -70.57883 | 2982 ft | 217 kts | 275° |
| 2026-04-25 18:50 | 43.75164 | -70.59937 | 2768 ft | 216 kts | 243° |
| 2026-04-25 18:50 | 43.74128 | -70.61330 | 2453 ft | 212 kts | 200° |
| 2026-04-25 18:50 | 43.72686 | -70.61374 | 2357 ft | 210 kts | 166° |
| 2026-04-25 18:50 | 43.71360 | -70.60633 | 2306 ft | 201 kts | 142° |
| 2026-04-25 18:51 | 43.70385 | -70.59399 | 2296 ft | 181 kts | 137° |
| 2026-04-25 18:51 | 43.69794 | -70.58641 | 2279 ft | 169 kts | 137° |
| 2026-04-25 18:51 | 43.68647 | -70.57176 | 2310 ft | 171 kts | 137° |
| 2026-04-25 18:51 | 43.67759 | -70.56041 | 2309 ft | 176 kts | 137° |
| 2026-04-25 18:52 | 43.66867 | -70.54901 | 2301 ft | 175 kts | 136° |
| 2026-04-25 18:52 | 43.66246 | -70.53530 | 2283 ft | 170 kts | 97° |
| 2026-04-25 18:52 | 43.66127 | -70.51895 | 2301 ft | 175 kts | 101° |
| 2026-04-25 18:52 | 43.65869 | -70.50247 | 2306 ft | 176 kts | 100° |
| 2026-04-25 18:53 | 43.65687 | -70.48588 | 2306 ft | 175 kts | 96° |
| 2026-04-25 18:53 | 43.65559 | -70.46897 | 2187 ft | 179 kts | 95° |
| 2026-04-25 18:53 | 43.65441 | -70.45187 | 1958 ft | 179 kts | 95° |
| 2026-04-25 18:53 | 43.65326 | -70.43489 | 1715 ft | 174 kts | 95° |
| 2026-04-25 18:54 | 43.65115 | -70.40407 | 1266 ft | 148 kts | 95° |
| 2026-04-25 18:54 | 43.65023 | -70.39051 | 1087 ft | 141 kts | 95° |
| 2026-04-25 18:54 | 43.64931 | -70.37671 | 875 ft | 146 kts | 96° |
| 2026-04-25 18:55 | 43.64834 | -70.36283 | 660 ft | 147 kts | 97° |
| 2026-04-25 18:55 | 43.64740 | -70.34900 | 465 ft | 144 kts | 98° |
| 2026-04-25 18:55 | 43.64647 | -70.33531 | 274 ft | 143 kts | 99° |
| 2026-04-25 18:55 | 43.64564 | -70.32157 | 81 ft | 141 kts | 101° |
| 2026-04-25 18:56 | 43.64497 | -70.31222 | 62 ft | 51 kts | 96° |
| 2026-04-25 18:56 | 43.64465 | -70.30789 | 57 ft | 32 kts | 90° |
| 2026-04-25 18:56 | 43.64541 | -70.30702 | 52 ft | 9 kts | 342° |
| 2026-04-25 18:56 | 43.64579 | -70.30776 | 54 ft | 11 kts | 309° |
| 2026-04-25 18:57 | 43.64598 | -70.30795 | 55 ft | 0 kts | 333° |
| 2026-04-25 18:57 | 43.64611 | -70.30803 | 59 ft | 9 kts | 336° |
| 2026-04-25 18:57 | 43.64664 | -70.30831 | 57 ft | 0 kts | 339° |